createdAt,value
2019-02-24T00:01:49.821Z,9.80
2019-02-24T00:04:19.293Z,10.20
2019-02-24T00:06:52.673Z,10.77
2019-02-24T00:09:22.037Z,9.93
2019-02-24T00:11:51.421Z,9.90
2019-02-24T00:14:22.025Z,10.73
2019-02-24T00:16:51.457Z,10.50
2019-02-24T00:19:20.907Z,10.23
2019-02-24T00:21:50.348Z,10.07
2019-02-24T00:24:20.233Z,10.40
2019-02-24T00:26:53.503Z,10.93
2019-02-24T00:29:22.869Z,11.20
2019-02-24T00:31:52.239Z,11.47
2019-02-24T00:34:22.655Z,12.13
2019-02-24T00:36:52.081Z,11.43
2019-02-24T00:39:21.533Z,12.23
2019-02-24T00:41:51.153Z,11.20
2019-02-24T00:44:21.413Z,10.95
2019-02-24T00:46:51.939Z,10.57
2019-02-24T00:49:21.609Z,11.20
2019-02-24T00:51:54.515Z,11.73
2019-02-24T00:54:23.963Z,12.70
2019-02-24T00:56:53.389Z,11.03
2019-02-24T00:59:25.996Z,11.90
2019-02-24T01:01:56.573Z,11.43
2019-02-24T01:04:26.015Z,11.03
2019-02-24T01:06:56.433Z,11.73
2019-02-24T01:09:25.886Z,11.07
2019-02-24T01:11:55.374Z,11.53
2019-02-24T01:14:25.855Z,11.17
2019-02-24T01:16:56.403Z,10.70
2019-02-24T01:19:25.891Z,11.50
2019-02-24T01:21:55.330Z,11.00
2019-02-24T01:24:24.773Z,10.47
2019-02-24T01:26:54.172Z,10.87
2019-02-24T01:29:23.809Z,11.28
2019-02-24T01:31:53.918Z,11.23
2019-02-24T01:34:24.015Z,10.30
2019-02-24T01:36:54.141Z,12.30
2019-02-24T01:39:24.234Z,11.97
2019-02-24T01:41:54.408Z,11.90
2019-02-24T01:44:24.489Z,11.27
2019-02-24T01:46:55.407Z,11.57
2019-02-24T01:49:24.839Z,11.13
2019-02-24T01:51:54.857Z,12.47
2019-02-24T01:54:24.949Z,12.57
2019-02-24T01:56:55.050Z,11.37
2019-02-24T01:59:25.227Z,10.90
2019-02-24T02:01:55.412Z,11.48
2019-02-24T02:04:25.499Z,11.57
2019-02-24T02:06:55.557Z,11.40
2019-02-24T02:09:25.755Z,10.88
2019-02-24T02:11:56.003Z,10.97
2019-02-24T02:14:25.976Z,11.03
2019-02-24T02:16:56.118Z,11.27
2019-02-24T02:19:26.309Z,10.90
2019-02-24T02:21:56.450Z,11.00
2019-02-24T02:24:26.642Z,10.80
2019-02-24T02:26:56.689Z,10.70
2019-02-24T02:29:27.738Z,11.30
2019-02-24T02:31:57.324Z,11.23
2019-02-24T02:34:27.015Z,12.03
2019-02-24T02:36:57.313Z,11.33
2019-02-24T02:39:27.337Z,11.27
2019-02-24T02:41:57.474Z,11.50
2019-02-24T02:44:27.543Z,11.77
2019-02-24T02:46:57.703Z,12.00
2019-02-24T02:49:27.810Z,11.63
2019-02-24T02:51:57.940Z,11.43
2019-02-24T02:54:32.276Z,11.90
2019-02-24T02:57:01.735Z,11.63
2019-02-24T02:59:31.177Z,11.67
2019-02-24T03:02:00.696Z,11.97
2019-02-24T03:04:30.265Z,11.03
2019-02-24T03:07:04.440Z,12.17
2019-02-24T03:09:33.871Z,11.67
2019-02-24T03:12:03.313Z,11.93
2019-02-24T03:14:32.746Z,10.27
2019-02-24T03:17:02.204Z,10.80
2019-02-24T03:19:31.631Z,11.33
2019-02-24T03:22:01.088Z,11.27
2019-02-24T03:24:30.589Z,11.90
2019-02-24T03:27:00.024Z,11.57
2019-02-24T03:29:29.985Z,11.38
2019-02-24T03:32:00.111Z,12.03
2019-02-24T03:34:30.210Z,12.00
2019-02-24T03:37:00.621Z,12.17
2019-02-24T03:39:30.440Z,12.53
2019-02-24T03:42:00.750Z,12.33
2019-02-24T03:44:30.782Z,12.30
2019-02-24T03:47:00.903Z,12.53
2019-02-24T03:49:31.018Z,12.63
2019-02-24T03:52:01.158Z,11.95
2019-02-24T03:54:34.052Z,12.67
2019-02-24T03:57:05.194Z,12.40
2019-02-24T03:59:34.697Z,15.47
2019-02-24T04:02:04.240Z,13.93
2019-02-24T04:04:33.659Z,14.20
2019-02-24T04:07:03.105Z,13.77
2019-02-24T04:09:32.478Z,13.93
2019-02-24T04:12:02.255Z,13.08
2019-02-24T04:14:32.328Z,13.90
2019-02-24T04:17:02.514Z,13.00
2019-02-24T04:19:32.655Z,13.30
2019-02-24T04:22:02.851Z,13.80
2019-02-24T04:24:32.980Z,13.77
2019-02-24T04:27:03.090Z,13.43
2019-02-24T04:29:33.184Z,14.03
2019-02-24T04:32:05.114Z,13.68
2019-02-24T04:34:34.565Z,13.97
2019-02-24T04:37:04.013Z,14.03
2019-02-24T04:39:34.504Z,14.40
2019-02-24T04:42:03.974Z,14.07
2019-02-24T04:44:34.120Z,13.63
2019-02-24T04:47:04.306Z,14.07
2019-02-24T04:49:34.359Z,13.37
2019-02-24T04:52:04.853Z,14.10
2019-02-24T04:54:34.664Z,13.43
2019-02-24T04:57:04.779Z,13.95
2019-02-24T04:59:35.836Z,14.10
2019-02-24T05:02:05.337Z,14.20
2019-02-24T05:04:35.063Z,14.03
2019-02-24T05:07:05.273Z,14.18
2019-02-24T05:09:35.404Z,14.10
2019-02-24T05:12:05.385Z,12.90
2019-02-24T05:14:34.764Z,14.77
2019-02-24T05:17:04.200Z,14.07
2019-02-24T05:19:33.628Z,14.03
2019-02-24T05:22:02.978Z,14.47
2019-02-24T05:24:32.427Z,15.23
2019-02-24T05:27:01.846Z,17.50
2019-02-24T05:29:31.221Z,14.60
2019-02-24T05:32:01.723Z,15.43
2019-02-24T05:34:31.115Z,15.10
2019-02-24T05:37:00.540Z,14.80
2019-02-24T05:39:31.631Z,15.17
2019-02-24T05:42:00.984Z,16.10
2019-02-24T05:44:30.411Z,15.37
2019-02-24T05:47:01.433Z,15.63
2019-02-24T05:49:30.848Z,15.87
2019-02-24T05:52:00.233Z,15.57
2019-02-24T05:54:29.657Z,15.30
2019-02-24T05:56:59.107Z,15.97
2019-02-24T05:59:28.543Z,16.77
2019-02-24T06:01:57.999Z,15.30
2019-02-24T06:04:27.498Z,16.03
2019-02-24T06:06:56.930Z,16.50
2019-02-24T06:09:26.362Z,15.60
2019-02-24T06:11:55.812Z,15.37
2019-02-24T06:14:25.236Z,16.30
2019-02-24T06:16:54.675Z,16.10
2019-02-24T06:19:24.107Z,15.80
2019-02-24T06:21:53.547Z,15.97
2019-02-24T06:24:22.973Z,16.23
2019-02-24T06:26:52.421Z,16.33
2019-02-24T06:29:21.851Z,17.27
2019-02-24T06:31:51.303Z,17.13
2019-02-24T06:34:20.759Z,16.70
2019-02-24T06:36:50.192Z,16.87
2019-02-24T06:39:19.651Z,16.07
2019-02-24T06:41:49.088Z,16.57
2019-02-24T06:44:18.530Z,17.90
2019-02-24T06:46:47.959Z,17.67
2019-02-24T06:49:17.492Z,16.90
2019-02-24T06:51:49.705Z,16.37
2019-02-24T06:54:19.147Z,16.97
2019-02-24T06:56:49.555Z,16.60
2019-02-24T06:59:20.081Z,16.10
2019-02-24T07:01:49.526Z,17.30
2019-02-24T07:04:18.967Z,16.73
2019-02-24T07:06:48.403Z,18.47
2019-02-24T07:09:19.097Z,18.23
2019-02-24T07:11:48.597Z,19.00
2019-02-24T07:14:18.042Z,18.13
2019-02-24T07:16:47.463Z,17.07
2019-02-24T07:19:16.930Z,16.80
2019-02-24T07:21:46.382Z,18.87
2019-02-24T07:24:15.798Z,17.30
2019-02-24T07:26:45.235Z,16.70
2019-02-24T07:29:14.690Z,17.57
2019-02-24T07:31:44.605Z,17.60
2019-02-24T07:34:14.734Z,17.62
2019-02-24T07:36:44.825Z,18.57
2019-02-24T07:39:14.970Z,16.80
2019-02-24T07:41:45.061Z,18.83
2019-02-24T07:44:15.235Z,18.43
2019-02-24T07:46:45.357Z,19.30
2019-02-24T07:49:15.422Z,19.00
2019-02-24T07:51:46.470Z,18.77
2019-02-24T07:54:15.849Z,18.67
2019-02-24T07:56:45.771Z,19.87
2019-02-24T07:59:15.877Z,18.73
2019-02-24T08:01:45.979Z,20.07
2019-02-24T08:04:16.291Z,19.47
2019-02-24T08:06:46.310Z,18.70
2019-02-24T08:09:16.827Z,18.60
2019-02-24T08:11:46.261Z,19.97
2019-02-24T08:14:15.804Z,18.37
2019-02-24T08:16:45.241Z,19.57
2019-02-24T08:19:14.785Z,18.83
2019-02-24T08:21:44.293Z,19.13
2019-02-24T08:24:13.750Z,19.13
2019-02-24T08:26:43.197Z,18.63
2019-02-24T08:29:15.462Z,19.10
2019-02-24T08:31:45.962Z,20.03
2019-02-24T08:34:18.434Z,19.57
2019-02-24T08:36:47.922Z,19.23
2019-02-24T08:39:17.448Z,19.53
2019-02-24T08:41:46.872Z,19.20
2019-02-24T08:44:16.344Z,18.90
2019-02-24T08:46:45.775Z,20.17
2019-02-24T08:49:15.201Z,18.90
2019-02-24T08:51:44.722Z,19.13
2019-02-24T08:54:14.144Z,19.80
2019-02-24T08:56:43.585Z,19.10
2019-02-24T08:59:13.009Z,18.77
2019-02-24T09:01:42.456Z,19.53
2019-02-24T09:04:11.880Z,19.47
2019-02-24T09:06:41.358Z,20.07
2019-02-24T09:09:10.789Z,19.63
2019-02-24T09:11:40.258Z,19.33
2019-02-24T09:14:09.690Z,19.20
2019-02-24T09:16:39.185Z,19.33
2019-02-24T09:19:08.616Z,18.77
2019-02-24T09:21:38.128Z,19.20
2019-02-24T09:24:07.559Z,21.23
2019-02-24T09:26:37.015Z,19.80
2019-02-24T09:29:06.524Z,20.70
2019-02-24T09:31:36.020Z,19.17
2019-02-24T09:34:05.532Z,19.87
2019-02-24T09:36:34.969Z,20.67
2019-02-24T09:39:04.858Z,20.33
2019-02-24T09:41:34.904Z,19.50
2019-02-24T09:44:04.429Z,21.97
2019-02-24T09:46:33.881Z,20.87
2019-02-24T09:49:03.324Z,21.77
2019-02-24T09:51:32.845Z,22.33
2019-02-24T09:54:02.294Z,32.57
2019-02-24T09:56:31.802Z,49.87
2019-02-24T09:59:02.831Z,38.40
2019-02-24T10:01:32.420Z,22.70
2019-02-24T10:04:01.882Z,19.20
2019-02-24T10:06:31.325Z,18.93
2019-02-24T10:09:00.764Z,19.70
2019-02-24T10:11:32.086Z,18.57
2019-02-24T10:14:01.595Z,19.33
2019-02-24T10:16:31.132Z,19.33
2019-02-24T10:19:00.603Z,19.50
2019-02-24T10:21:30.113Z,19.63
2019-02-24T10:24:00.987Z,18.83
2019-02-24T10:26:30.459Z,18.07
2019-02-24T10:28:59.877Z,18.57
2019-02-24T10:31:29.467Z,18.77
2019-02-24T10:33:58.911Z,17.97
2019-02-24T10:36:29.280Z,18.77
2019-02-24T10:38:58.780Z,18.57
2019-02-24T10:41:29.855Z,18.57
2019-02-24T10:43:59.295Z,17.57
2019-02-24T10:46:28.807Z,18.80
2019-02-24T10:49:03.303Z,19.43
2019-02-24T10:51:31.737Z,19.80
2019-02-24T10:54:01.463Z,18.77
2019-02-24T10:56:30.920Z,19.40
2019-02-24T10:59:01.441Z,18.93
2019-02-24T11:01:30.887Z,17.80
2019-02-24T11:04:00.350Z,17.80
2019-02-24T11:06:29.791Z,18.80
2019-02-24T11:08:59.308Z,19.23
2019-02-24T11:11:28.890Z,19.30
2019-02-24T11:13:58.378Z,18.43
2019-02-24T11:16:27.824Z,18.70
2019-02-24T11:18:57.826Z,18.77
2019-02-24T11:21:27.895Z,19.17
2019-02-24T11:23:58.063Z,18.67
2019-02-24T11:26:28.212Z,19.40
2019-02-24T11:28:58.290Z,18.83
2019-02-24T11:31:28.355Z,19.07
2019-02-24T11:33:58.500Z,18.53
2019-02-24T11:36:28.584Z,19.63
2019-02-24T11:38:58.744Z,19.33
2019-02-24T11:41:29.061Z,19.27
2019-02-24T11:43:59.073Z,18.90
2019-02-24T11:46:29.174Z,18.37
2019-02-24T11:48:59.398Z,18.80
2019-02-24T11:51:29.527Z,19.70
2019-02-24T11:53:59.735Z,19.02
2019-02-24T11:56:29.822Z,19.17
2019-02-24T11:58:59.837Z,19.17
2019-02-24T12:01:30.049Z,20.10
2019-02-24T12:04:00.179Z,19.83
2019-02-24T12:06:30.454Z,19.62
2019-02-24T12:09:05.186Z,19.90
2019-02-24T12:11:33.097Z,19.10
2019-02-24T12:14:02.717Z,18.52
2019-02-24T12:16:33.234Z,20.17
2019-02-24T12:19:02.755Z,19.33
2019-02-24T12:21:32.253Z,19.13
2019-02-24T12:24:01.708Z,19.57
2019-02-24T12:26:31.233Z,18.63
2019-02-24T12:29:01.435Z,19.77
2019-02-24T12:31:31.498Z,19.45
2019-02-24T12:34:02.019Z,21.37
2019-02-24T12:36:33.698Z,18.90
2019-02-24T12:39:03.778Z,18.05
2019-02-24T12:41:34.883Z,19.47
2019-02-24T12:44:04.329Z,19.17
2019-02-24T12:46:33.779Z,19.00
2019-02-24T12:49:04.864Z,17.63
2019-02-24T12:51:34.326Z,18.92
2019-02-24T12:54:04.034Z,17.95
2019-02-24T12:56:33.600Z,17.45
2019-02-24T12:59:03.054Z,18.05
2019-02-24T13:01:33.193Z,17.62
2019-02-24T13:04:03.299Z,17.10
2019-02-24T13:06:33.451Z,17.93
2019-02-24T13:09:05.080Z,17.90
2019-02-24T13:11:34.859Z,17.87
2019-02-24T13:14:04.371Z,16.93
2019-02-24T13:16:34.081Z,16.87
2019-02-24T13:19:04.257Z,16.48
2019-02-24T13:21:34.365Z,16.93
2019-02-24T13:24:04.505Z,17.63
2019-02-24T13:26:34.548Z,17.07
2019-02-24T13:29:04.765Z,17.67
2019-02-24T13:31:36.537Z,16.30
2019-02-24T13:34:06.007Z,18.57
2019-02-24T13:36:35.518Z,17.12
2019-02-24T13:39:06.598Z,18.27
2019-02-24T13:41:36.237Z,16.73
2019-02-24T13:44:05.757Z,18.30
2019-02-24T13:46:35.504Z,16.67
2019-02-24T13:49:05.709Z,17.52
2019-02-24T13:51:35.947Z,15.85
2019-02-24T13:54:05.936Z,17.12
2019-02-24T13:56:36.085Z,16.90
2019-02-24T13:59:06.182Z,16.37
2019-02-24T14:01:36.323Z,16.47
2019-02-24T14:04:06.484Z,17.02
2019-02-24T14:06:36.565Z,16.97
2019-02-24T14:09:08.136Z,17.23
2019-02-24T14:11:37.678Z,16.90
2019-02-24T14:14:07.129Z,15.45
2019-02-24T14:16:37.135Z,16.37
2019-02-24T14:19:06.585Z,17.40
2019-02-24T14:21:36.022Z,16.42
2019-02-24T14:24:05.481Z,16.30
2019-02-24T14:26:34.936Z,15.97
2019-02-24T14:29:04.426Z,16.35
2019-02-24T14:31:33.864Z,16.07
2019-02-24T14:34:03.395Z,15.23
2019-02-24T14:36:33.229Z,14.63
2019-02-24T14:39:02.680Z,14.27
2019-02-24T14:41:33.842Z,13.90
2019-02-24T14:44:03.295Z,14.15
2019-02-24T14:46:32.792Z,14.50
2019-02-24T14:49:02.213Z,14.45
2019-02-24T14:51:31.665Z,13.77
2019-02-24T14:54:01.157Z,16.33
2019-02-24T14:56:30.595Z,16.55
2019-02-24T14:59:00.062Z,17.10
2019-02-24T15:01:29.527Z,18.10
2019-02-24T15:03:59.505Z,16.87
2019-02-24T15:06:28.992Z,17.37
2019-02-24T15:08:58.380Z,17.37
2019-02-24T15:11:27.858Z,16.63
2019-02-24T15:13:57.282Z,16.40
2019-02-24T15:16:26.844Z,15.97
2019-02-24T15:18:56.225Z,14.78
2019-02-24T15:21:25.676Z,15.30
2019-02-24T15:23:55.158Z,14.85
2019-02-24T15:26:24.676Z,15.57
2019-02-24T15:28:55.368Z,15.40
2019-02-24T15:31:24.828Z,16.63
2019-02-24T15:33:54.358Z,17.00
2019-02-24T15:36:23.826Z,16.45
2019-02-24T15:38:53.350Z,16.90
2019-02-24T15:41:29.577Z,16.50
2019-02-24T15:43:53.979Z,15.37
2019-02-24T15:46:23.474Z,17.33
2019-02-24T15:48:53.243Z,17.40
2019-02-24T15:51:22.762Z,17.00
2019-02-24T15:53:52.429Z,17.37
2019-02-24T15:56:21.881Z,16.75
2019-02-24T15:58:51.327Z,15.83
2019-02-24T16:01:20.864Z,16.80
2019-02-24T16:03:50.328Z,16.80
2019-02-24T16:06:19.796Z,16.67
2019-02-24T16:08:49.258Z,17.03
2019-02-24T16:11:18.830Z,17.63
2019-02-24T16:13:48.278Z,18.40
2019-02-24T16:16:19.280Z,19.00
2019-02-24T16:18:48.808Z,17.03
2019-02-24T16:21:19.751Z,18.07
2019-02-24T16:23:49.179Z,18.80
2019-02-24T16:26:18.672Z,19.73
2019-02-24T16:28:48.254Z,17.50
2019-02-24T16:31:17.757Z,18.73
2019-02-24T16:33:47.255Z,19.07
2019-02-24T16:36:16.724Z,18.87
2019-02-24T16:38:47.152Z,19.90
2019-02-24T16:41:16.703Z,21.87
2019-02-24T16:43:46.202Z,19.17
2019-02-24T16:46:15.760Z,18.47
2019-02-24T16:48:46.974Z,18.30
2019-02-24T16:51:16.435Z,18.43
2019-02-24T16:53:45.989Z,21.13
2019-02-24T16:56:16.020Z,19.03
2019-02-24T16:58:46.007Z,18.17
2019-02-24T17:01:16.232Z,21.57
2019-02-24T17:03:46.322Z,23.93
2019-02-24T17:06:16.783Z,20.47
2019-02-24T17:08:51.884Z,22.97
2019-02-24T17:11:20.163Z,20.40
2019-02-24T17:13:50.676Z,20.80
2019-02-24T17:16:21.525Z,21.80
2019-02-24T17:18:50.983Z,23.07
2019-02-24T17:21:20.813Z,25.63
2019-02-24T17:23:52.339Z,25.27
2019-02-24T17:26:21.490Z,23.83
2019-02-24T17:28:50.935Z,25.77
2019-02-24T17:31:28.111Z,24.37
2019-02-24T17:33:51.964Z,26.97
2019-02-24T17:36:22.154Z,26.70
2019-02-24T17:38:51.692Z,27.50
2019-02-24T17:41:21.309Z,27.83
2019-02-24T17:43:52.197Z,32.90
2019-02-24T17:46:22.835Z,37.93
2019-02-24T17:48:53.836Z,39.63
2019-02-24T17:51:26.019Z,40.47
2019-02-24T17:53:55.601Z,44.97
2019-02-24T17:56:25.072Z,45.57
2019-02-24T17:58:54.533Z,45.33
2019-02-24T18:01:24.088Z,42.83
2019-02-24T18:03:54.632Z,54.93
2019-02-24T18:06:26.242Z,50.00
2019-02-24T18:08:55.694Z,43.53
2019-02-24T18:11:26.393Z,45.40
2019-02-24T18:13:59.579Z,69.17
2019-02-24T18:16:29.996Z,57.63
2019-02-24T18:18:59.515Z,31.63
2019-02-24T18:21:28.997Z,27.40
2019-02-24T18:23:59.897Z,28.53
2019-02-24T18:26:29.365Z,28.83
2019-02-24T18:28:58.896Z,29.03
2019-02-24T18:31:28.428Z,29.63
2019-02-24T18:34:01.506Z,28.63
2019-02-24T18:36:30.944Z,28.50
2019-02-24T18:39:00.399Z,29.17
2019-02-24T18:41:34.126Z,33.40
2019-02-24T18:44:03.579Z,31.93
2019-02-24T18:46:34.743Z,30.80
2019-02-24T18:49:08.661Z,26.63
2019-02-24T18:51:38.279Z,27.00
2019-02-24T18:54:09.094Z,28.63
2019-02-24T18:56:40.237Z,26.77
2019-02-24T18:59:09.768Z,29.33
2019-02-24T19:01:40.337Z,27.53
2019-02-24T19:04:09.796Z,28.73
2019-02-24T19:06:39.899Z,30.40
2019-02-24T19:09:10.268Z,31.70
2019-02-24T19:11:40.099Z,30.27
2019-02-24T19:14:10.935Z,34.40
2019-02-24T19:16:42.391Z,31.87
2019-02-24T19:19:12.214Z,35.07
2019-02-24T19:21:43.217Z,34.93
2019-02-24T19:24:12.676Z,32.13
2019-02-24T19:26:42.186Z,34.47
2019-02-24T19:29:13.281Z,33.53
2019-02-24T19:31:44.347Z,31.27
2019-02-24T19:34:13.800Z,32.90
2019-02-24T19:36:43.240Z,34.83
2019-02-24T19:39:14.349Z,33.97
2019-02-24T19:41:44.453Z,35.47
2019-02-24T19:44:13.983Z,34.13
2019-02-24T19:46:44.792Z,35.10
2019-02-24T19:49:14.259Z,37.70
2019-02-24T19:51:45.112Z,39.27
2019-02-24T19:54:15.131Z,40.17
2019-02-24T19:56:44.590Z,40.60
2019-02-24T19:59:14.037Z,39.10
2019-02-24T20:01:46.009Z,36.87
2019-02-24T20:04:19.914Z,37.10
2019-02-24T20:06:49.404Z,37.73
2019-02-24T20:09:19.008Z,36.53
2019-02-24T20:11:51.158Z,38.17
2019-02-24T20:14:20.613Z,37.70
2019-02-24T20:16:50.715Z,37.37
2019-02-24T20:19:21.073Z,34.77
2019-02-24T20:21:50.550Z,34.33
2019-02-24T20:24:20.291Z,34.67
2019-02-24T20:26:50.572Z,36.40
2019-02-24T20:29:23.858Z,36.13
2019-02-24T20:31:53.974Z,34.97
2019-02-24T20:34:25.843Z,34.63
2019-02-24T20:36:57.669Z,33.53
2019-02-24T20:39:28.034Z,35.33
2019-02-24T20:41:57.570Z,34.70
2019-02-24T20:44:28.223Z,35.30
2019-02-24T20:46:57.737Z,35.97
2019-02-24T20:49:27.213Z,36.40
2019-02-24T20:51:56.640Z,37.50
2019-02-24T20:54:27.704Z,38.97
2019-02-24T20:56:57.128Z,39.80
2019-02-24T20:59:26.627Z,39.30
2019-02-24T21:01:56.171Z,37.30
2019-02-24T21:04:26.171Z,33.70
2019-02-24T21:06:55.703Z,30.87
2019-02-24T21:09:25.256Z,36.00
2019-02-24T21:11:54.758Z,33.53
2019-02-24T21:14:25.570Z,35.43
2019-02-24T21:16:58.046Z,34.20
2019-02-24T21:19:28.593Z,36.23
2019-02-24T21:21:58.127Z,30.63
2019-02-24T21:24:27.652Z,34.03
2019-02-24T21:26:58.354Z,32.20
2019-02-24T21:29:28.207Z,29.50
2019-02-24T21:31:57.643Z,29.33
2019-02-24T21:34:28.510Z,30.77
2019-02-24T21:36:57.966Z,29.53
2019-02-24T21:39:27.498Z,29.50
2019-02-24T21:41:56.974Z,27.30
2019-02-24T21:44:26.437Z,30.83
2019-02-24T21:46:55.930Z,31.67
2019-02-24T21:49:25.445Z,29.70
2019-02-24T21:51:56.142Z,30.73
2019-02-24T21:54:25.607Z,30.33
2019-02-24T21:56:55.118Z,29.70
2019-02-24T21:59:24.596Z,29.03
2019-02-24T22:01:54.106Z,29.07
2019-02-24T22:04:23.638Z,26.57
2019-02-24T22:06:53.089Z,27.83
2019-02-24T22:09:22.543Z,29.17
2019-02-24T22:11:52.062Z,25.83
2019-02-24T22:14:23.454Z,27.20
2019-02-24T22:16:52.893Z,27.27
2019-02-24T22:19:22.335Z,26.90
2019-02-24T22:21:51.813Z,28.10
2019-02-24T22:24:21.241Z,28.30
2019-02-24T22:26:50.683Z,27.60
2019-02-24T22:29:20.156Z,28.30
2019-02-24T22:31:49.596Z,28.47
2019-02-24T22:34:19.029Z,28.90
2019-02-24T22:36:48.430Z,26.87
2019-02-24T22:39:17.871Z,27.37
2019-02-24T22:41:47.369Z,26.63
2019-02-24T22:44:18.456Z,28.00
2019-02-24T22:46:47.941Z,27.63
2019-02-24T22:49:17.396Z,27.50
2019-02-24T22:51:46.830Z,26.87
2019-02-24T22:54:16.308Z,26.53
2019-02-24T22:56:45.813Z,27.50
2019-02-24T22:59:15.257Z,26.43
2019-02-24T23:01:45.553Z,28.27
2019-02-24T23:04:15.386Z,28.50
2019-02-24T23:06:44.856Z,26.60
2019-02-24T23:09:15.232Z,28.13
2019-02-24T23:11:44.927Z,25.27
2019-02-24T23:14:14.352Z,25.87
2019-02-24T23:16:43.951Z,26.65
2019-02-24T23:19:14.179Z,28.23
2019-02-24T23:21:44.671Z,28.30
2019-02-24T23:24:14.310Z,28.10
2019-02-24T23:26:46.895Z,27.47
2019-02-24T23:29:16.334Z,27.57
2019-02-24T23:31:45.753Z,27.87
2019-02-24T23:34:15.140Z,27.90
2019-02-24T23:36:45.002Z,26.77
2019-02-24T23:39:16.513Z,27.43
2019-02-24T23:41:46.789Z,27.60
2019-02-24T23:44:16.394Z,28.87
2019-02-24T23:46:45.818Z,28.77
2019-02-24T23:49:17.516Z,26.60
2019-02-24T23:51:46.773Z,29.70
2019-02-24T23:54:17.283Z,29.37
2019-02-24T23:56:47.796Z,26.17
2019-02-24T23:59:17.236Z,26.53
